sensor_id;sensor_type;location;lat;lon;timestamp;temperature;humidity
56046;DHT22;41913;51.030;3.706;2023-04-15T00:02:00;18.10;86.20
56046;DHT22;41913;51.030;3.706;2023-04-15T00:04:28;18.10;86.20
56046;DHT22;41913;51.030;3.706;2023-04-15T00:06:55;18.10;86.20
56046;DHT22;41913;51.030;3.706;2023-04-15T00:09:21;18.10;86.20
56046;DHT22;41913;51.030;3.706;2023-04-15T00:11:47;18.10;86.20
56046;DHT22;41913;51.030;3.706;2023-04-15T00:14:13;18.10;86.80
56046;DHT22;41913;51.030;3.706;2023-04-15T00:16:38;18.10;86.20
56046;DHT22;41913;51.030;3.706;2023-04-15T00:19:04;18.10;86.20
56046;DHT22;41913;51.030;3.706;2023-04-15T00:21:30;18.10;86.20
56046;DHT22;41913;51.030;3.706;2023-04-15T00:23:55;18.10;86.30
56046;DHT22;41913;51.030;3.706;2023-04-15T00:26:21;18.10;86.20
56046;DHT22;41913;51.030;3.706;2023-04-15T00:28:47;18.10;86.20
56046;DHT22;41913;51.030;3.706;2023-04-15T00:31:13;18.10;86.20
56046;DHT22;41913;51.030;3.706;2023-04-15T00:33:39;18.10;86.30
56046;DHT22;41913;51.030;3.706;2023-04-15T00:36:06;18.10;86.20
56046;DHT22;41913;51.030;3.706;2023-04-15T00:38:32;18.10;86.20
56046;DHT22;41913;51.030;3.706;2023-04-15T00:40:58;18.10;86.20
56046;DHT22;41913;51.030;3.706;2023-04-15T00:43:24;18.10;86.30
56046;DHT22;41913;51.030;3.706;2023-04-15T00:45:52;18.10;86.30
56046;DHT22;41913;51.030;3.706;2023-04-15T00:48:19;18.10;86.20
56046;DHT22;41913;51.030;3.706;2023-04-15T00:50:45;18.10;86.30
56046;DHT22;41913;51.030;3.706;2023-04-15T00:53:11;18.10;86.20
56046;DHT22;41913;51.030;3.706;2023-04-15T00:55:37;18.10;86.20
56046;DHT22;41913;51.030;3.706;2023-04-15T00:58:03;18.10;86.20
56046;DHT22;41913;51.030;3.706;2023-04-15T01:00:29;18.10;86.30
56046;DHT22;41913;51.030;3.706;2023-04-15T01:02:55;18.10;86.30
56046;DHT22;41913;51.030;3.706;2023-04-15T01:05:21;18.10;86.30
56046;DHT22;41913;51.030;3.706;2023-04-15T01:07:48;18.10;86.30
56046;DHT22;41913;51.030;3.706;2023-04-15T01:10:13;18.00;86.20
56046;DHT22;41913;51.030;3.706;2023-04-15T01:12:39;18.10;86.20
56046;DHT22;41913;51.030;3.706;2023-04-15T01:15:05;18.10;86.30
56046;DHT22;41913;51.030;3.706;2023-04-15T01:17:33;18.00;86.20
56046;DHT22;41913;51.030;3.706;2023-04-15T01:19:59;18.10;86.30
56046;DHT22;41913;51.030;3.706;2023-04-15T01:22:26;18.00;86.20
56046;DHT22;41913;51.030;3.706;2023-04-15T01:25:05;18.10;86.20
56046;DHT22;41913;51.030;3.706;2023-04-15T01:27:33;18.10;86.30
56046;DHT22;41913;51.030;3.706;2023-04-15T01:30:00;18.00;86.20
56046;DHT22;41913;51.030;3.706;2023-04-15T01:32:27;18.00;86.20
56046;DHT22;41913;51.030;3.706;2023-04-15T01:34:53;18.00;86.20
56046;DHT22;41913;51.030;3.706;2023-04-15T01:37:19;18.00;86.10
56046;DHT22;41913;51.030;3.706;2023-04-15T01:39:45;18.00;86.10
56046;DHT22;41913;51.030;3.706;2023-04-15T01:42:10;18.00;86.10
56046;DHT22;41913;51.030;3.706;2023-04-15T01:44:36;18.00;86.10
56046;DHT22;41913;51.030;3.706;2023-04-15T01:47:03;18.00;86.00
56046;DHT22;41913;51.030;3.706;2023-04-15T01:49:29;18.00;86.10
56046;DHT22;41913;51.030;3.706;2023-04-15T01:51:55;18.00;86.00
56046;DHT22;41913;51.030;3.706;2023-04-15T01:54:21;18.00;86.00
56046;DHT22;41913;51.030;3.706;2023-04-15T01:56:47;18.00;86.00
56046;DHT22;41913;51.030;3.706;2023-04-15T01:59:12;18.10;86.10
56046;DHT22;41913;51.030;3.706;2023-04-15T02:01:39;18.00;86.00
56046;DHT22;41913;51.030;3.706;2023-04-15T02:04:05;18.00;86.00
56046;DHT22;41913;51.030;3.706;2023-04-15T02:06:31;18.00;86.00
56046;DHT22;41913;51.030;3.706;2023-04-15T02:08:57;18.00;86.00
56046;DHT22;41913;51.030;3.706;2023-04-15T02:11:23;18.00;85.90
56046;DHT22;41913;51.030;3.706;2023-04-15T02:13:49;18.00;85.90
56046;DHT22;41913;51.030;3.706;2023-04-15T02:16:16;18.00;85.90
56046;DHT22;41913;51.030;3.706;2023-04-15T02:18:44;18.00;85.90
56046;DHT22;41913;51.030;3.706;2023-04-15T02:21:10;18.00;85.90
56046;DHT22;41913;51.030;3.706;2023-04-15T02:23:35;18.00;85.80
56046;DHT22;41913;51.030;3.706;2023-04-15T02:26:01;18.00;85.90
56046;DHT22;41913;51.030;3.706;2023-04-15T02:28:27;18.00;85.90
56046;DHT22;41913;51.030;3.706;2023-04-15T02:30:52;18.00;85.80
56046;DHT22;41913;51.030;3.706;2023-04-15T02:33:20;18.00;85.80
56046;DHT22;41913;51.030;3.706;2023-04-15T02:35:46;18.00;85.70
56046;DHT22;41913;51.030;3.706;2023-04-15T02:38:11;18.00;85.70
56046;DHT22;41913;51.030;3.706;2023-04-15T02:40:38;18.00;85.70
56046;DHT22;41913;51.030;3.706;2023-04-15T02:43:04;18.00;85.70
56046;DHT22;41913;51.030;3.706;2023-04-15T02:45:32;18.00;85.60
56046;DHT22;41913;51.030;3.706;2023-04-15T02:47:57;18.00;85.60
56046;DHT22;41913;51.030;3.706;2023-04-15T02:50:23;18.00;85.60
56046;DHT22;41913;51.030;3.706;2023-04-15T02:52:50;18.00;85.60
56046;DHT22;41913;51.030;3.706;2023-04-15T02:55:16;18.00;85.60
56046;DHT22;41913;51.030;3.706;2023-04-15T02:57:42;18.00;85.60
56046;DHT22;41913;51.030;3.706;2023-04-15T03:00:08;18.00;85.60
56046;DHT22;41913;51.030;3.706;2023-04-15T03:02:37;18.00;85.70
56046;DHT22;41913;51.030;3.706;2023-04-15T03:05:03;18.00;85.60
56046;DHT22;41913;51.030;3.706;2023-04-15T03:07:31;17.90;85.50
56046;DHT22;41913;51.030;3.706;2023-04-15T03:09:57;18.00;85.60
56046;DHT22;41913;51.030;3.706;2023-04-15T03:12:22;18.00;85.60
56046;DHT22;41913;51.030;3.706;2023-04-15T03:14:48;18.00;85.60
56046;DHT22;41913;51.030;3.706;2023-04-15T03:17:14;17.90;85.50
56046;DHT22;41913;51.030;3.706;2023-04-15T03:19:40;18.00;85.60
56046;DHT22;41913;51.030;3.706;2023-04-15T03:22:05;18.00;85.60
56046;DHT22;41913;51.030;3.706;2023-04-15T03:24:31;18.00;85.60
56046;DHT22;41913;51.030;3.706;2023-04-15T03:26:56;18.00;85.60
56046;DHT22;41913;51.030;3.706;2023-04-15T03:29:23;18.00;85.60
56046;DHT22;41913;51.030;3.706;2023-04-15T03:31:48;18.00;85.60
56046;DHT22;41913;51.030;3.706;2023-04-15T03:34:14;18.00;85.60
56046;DHT22;41913;51.030;3.706;2023-04-15T03:36:40;18.00;85.60
56046;DHT22;41913;51.030;3.706;2023-04-15T03:39:06;18.00;85.50
56046;DHT22;41913;51.030;3.706;2023-04-15T03:41:31;18.00;85.50
56046;DHT22;41913;51.030;3.706;2023-04-15T03:43:57;18.00;85.50
56046;DHT22;41913;51.030;3.706;2023-04-15T03:46:23;17.90;85.50
56046;DHT22;41913;51.030;3.706;2023-04-15T03:48:48;18.00;85.60
56046;DHT22;41913;51.030;3.706;2023-04-15T03:51:14;18.00;85.60
56046;DHT22;41913;51.030;3.706;2023-04-15T03:53:39;18.00;85.60
56046;DHT22;41913;51.030;3.706;2023-04-15T03:56:05;17.90;85.50
56046;DHT22;41913;51.030;3.706;2023-04-15T03:58:31;17.90;85.50
56046;DHT22;41913;51.030;3.706;2023-04-15T04:00:57;17.90;85.50
56046;DHT22;41913;51.030;3.706;2023-04-15T04:03:22;18.00;85.60
56046;DHT22;41913;51.030;3.706;2023-04-15T04:05:48;17.90;85.50
56046;DHT22;41913;51.030;3.706;2023-04-15T04:08:14;17.90;85.50
56046;DHT22;41913;51.030;3.706;2023-04-15T04:10:41;17.90;85.50
56046;DHT22;41913;51.030;3.706;2023-04-15T04:13:06;17.90;85.50
56046;DHT22;41913;51.030;3.706;2023-04-15T04:15:32;17.90;85.50
56046;DHT22;41913;51.030;3.706;2023-04-15T04:17:58;17.90;85.50
56046;DHT22;41913;51.030;3.706;2023-04-15T04:20:24;17.90;85.50
56046;DHT22;41913;51.030;3.706;2023-04-15T04:22:50;18.00;85.60
56046;DHT22;41913;51.030;3.706;2023-04-15T04:25:16;17.90;85.50
56046;DHT22;41913;51.030;3.706;2023-04-15T04:27:42;17.90;86.10
56046;DHT22;41913;51.030;3.706;2023-04-15T04:30:08;17.90;85.50
56046;DHT22;41913;51.030;3.706;2023-04-15T04:32:34;17.90;85.50
56046;DHT22;41913;51.030;3.706;2023-04-15T04:34:59;17.90;85.50
56046;DHT22;41913;51.030;3.706;2023-04-15T04:37:25;17.90;85.50
56046;DHT22;41913;51.030;3.706;2023-04-15T04:39:50;17.90;85.50
56046;DHT22;41913;51.030;3.706;2023-04-15T04:42:16;17.90;85.50
56046;DHT22;41913;51.030;3.706;2023-04-15T04:44:42;17.90;85.50
56046;DHT22;41913;51.030;3.706;2023-04-15T04:47:09;17.90;85.60
56046;DHT22;41913;51.030;3.706;2023-04-15T04:49:35;17.90;85.60
56046;DHT22;41913;51.030;3.706;2023-04-15T04:52:01;17.90;85.50
56046;DHT22;41913;51.030;3.706;2023-04-15T04:54:27;17.90;85.60
56046;DHT22;41913;51.030;3.706;2023-04-15T04:56:52;17.90;85.60
56046;DHT22;41913;51.030;3.706;2023-04-15T04:59:18;17.90;86.00
56046;DHT22;41913;51.030;3.706;2023-04-15T05:01:43;17.90;85.60
56046;DHT22;41913;51.030;3.706;2023-04-15T05:04:09;17.90;85.50
56046;DHT22;41913;51.030;3.706;2023-04-15T05:06:35;17.90;85.60
56046;DHT22;41913;51.030;3.706;2023-04-15T05:09:01;17.90;85.60
56046;DHT22;41913;51.030;3.706;2023-04-15T05:11:28;17.90;85.60
56046;DHT22;41913;51.030;3.706;2023-04-15T05:13:53;17.90;85.60
56046;DHT22;41913;51.030;3.706;2023-04-15T05:16:19;17.90;85.60
56046;DHT22;41913;51.030;3.706;2023-04-15T05:18:45;17.90;85.60
56046;DHT22;41913;51.030;3.706;2023-04-15T05:21:11;17.90;85.60
56046;DHT22;41913;51.030;3.706;2023-04-15T05:23:37;17.90;85.60
56046;DHT22;41913;51.030;3.706;2023-04-15T05:26:03;17.90;85.60
56046;DHT22;41913;51.030;3.706;2023-04-15T05:28:28;17.90;85.60
56046;DHT22;41913;51.030;3.706;2023-04-15T05:30:54;17.90;85.60
56046;DHT22;41913;51.030;3.706;2023-04-15T05:33:20;17.90;85.60
56046;DHT22;41913;51.030;3.706;2023-04-15T05:35:46;17.90;85.60
56046;DHT22;41913;51.030;3.706;2023-04-15T05:38:12;17.90;85.60
56046;DHT22;41913;51.030;3.706;2023-04-15T05:40:37;17.80;85.60
56046;DHT22;41913;51.030;3.706;2023-04-15T05:43:03;17.90;85.60
56046;DHT22;41913;51.030;3.706;2023-04-15T05:45:28;17.90;86.20
56046;DHT22;41913;51.030;3.706;2023-04-15T05:47:55;17.90;85.80
56046;DHT22;41913;51.030;3.706;2023-04-15T05:50:21;17.90;85.80
56046;DHT22;41913;51.030;3.706;2023-04-15T05:52:47;18.00;85.60
56046;DHT22;41913;51.030;3.706;2023-04-15T05:55:13;18.00;85.40
56046;DHT22;41913;51.030;3.706;2023-04-15T05:57:39;18.00;85.30
56046;DHT22;41913;51.030;3.706;2023-04-15T06:00:05;18.00;85.30
56046;DHT22;41913;51.030;3.706;2023-04-15T06:02:31;18.00;85.20
56046;DHT22;41913;51.030;3.706;2023-04-15T06:04:57;18.00;85.20
56046;DHT22;41913;51.030;3.706;2023-04-15T06:07:23;18.00;85.10
56046;DHT22;41913;51.030;3.706;2023-04-15T06:09:49;18.00;85.10
56046;DHT22;41913;51.030;3.706;2023-04-15T06:12:15;18.00;85.00
56046;DHT22;41913;51.030;3.706;2023-04-15T06:14:41;18.00;85.00
56046;DHT22;41913;51.030;3.706;2023-04-15T06:17:07;18.00;85.00
56046;DHT22;41913;51.030;3.706;2023-04-15T06:19:33;18.00;84.90
56046;DHT22;41913;51.030;3.706;2023-04-15T06:22:01;18.00;85.00
56046;DHT22;41913;51.030;3.706;2023-04-15T06:24:27;18.00;85.00
56046;DHT22;41913;51.030;3.706;2023-04-15T06:26:53;18.00;85.00
56046;DHT22;41913;51.030;3.706;2023-04-15T06:29:18;18.00;85.00
56046;DHT22;41913;51.030;3.706;2023-04-15T06:31:46;18.10;85.10
56046;DHT22;41913;51.030;3.706;2023-04-15T06:34:12;18.10;85.00
56046;DHT22;41913;51.030;3.706;2023-04-15T06:36:38;18.20;85.10
56046;DHT22;41913;51.030;3.706;2023-04-15T06:39:04;18.30;85.00
56046;DHT22;41913;51.030;3.706;2023-04-15T06:41:30;18.40;85.00
56046;DHT22;41913;51.030;3.706;2023-04-15T06:43:56;18.50;84.80
56046;DHT22;41913;51.030;3.706;2023-04-15T06:46:21;18.60;84.70
56046;DHT22;41913;51.030;3.706;2023-04-15T06:48:48;18.70;84.60
56046;DHT22;41913;51.030;3.706;2023-04-15T06:51:14;18.80;84.30
56046;DHT22;41913;51.030;3.706;2023-04-15T06:53:39;19.00;84.10
56046;DHT22;41913;51.030;3.706;2023-04-15T06:56:07;19.20;83.90
56046;DHT22;41913;51.030;3.706;2023-04-15T06:58:33;19.30;83.60
56046;DHT22;41913;51.030;3.706;2023-04-15T07:00:59;19.50;83.30
56046;DHT22;41913;51.030;3.706;2023-04-15T07:03:25;19.60;82.90
56046;DHT22;41913;51.030;3.706;2023-04-15T07:05:51;19.80;82.60
56046;DHT22;41913;51.030;3.706;2023-04-15T07:08:18;20.00;82.30
56046;DHT22;41913;51.030;3.706;2023-04-15T07:10:44;20.20;82.00
56046;DHT22;41913;51.030;3.706;2023-04-15T07:13:10;20.30;81.60
56046;DHT22;41913;51.030;3.706;2023-04-15T07:15:36;20.50;81.20
56046;DHT22;41913;51.030;3.706;2023-04-15T07:18:02;20.60;80.80
56046;DHT22;41913;51.030;3.706;2023-04-15T07:20:28;20.70;80.50
56046;DHT22;41913;51.030;3.706;2023-04-15T07:22:53;20.80;80.20
56046;DHT22;41913;51.030;3.706;2023-04-15T07:25:19;21.00;80.00
56046;DHT22;41913;51.030;3.706;2023-04-15T07:27:45;21.10;79.70
56046;DHT22;41913;51.030;3.706;2023-04-15T07:30:11;21.20;79.40
56046;DHT22;41913;51.030;3.706;2023-04-15T07:32:37;21.30;79.10
56046;DHT22;41913;51.030;3.706;2023-04-15T07:35:03;21.30;78.90
56046;DHT22;41913;51.030;3.706;2023-04-15T07:37:29;21.50;78.80
56046;DHT22;41913;51.030;3.706;2023-04-15T07:39:55;21.50;78.60
56046;DHT22;41913;51.030;3.706;2023-04-15T07:42:21;21.60;78.50
56046;DHT22;41913;51.030;3.706;2023-04-15T07:44:46;21.70;78.40
56046;DHT22;41913;51.030;3.706;2023-04-15T07:47:12;21.80;78.40
56046;DHT22;41913;51.030;3.706;2023-04-15T07:49:38;21.90;78.00
56046;DHT22;41913;51.030;3.706;2023-04-15T07:52:04;22.00;77.90
56046;DHT22;41913;51.030;3.706;2023-04-15T07:54:30;22.10;77.60
56046;DHT22;41913;51.030;3.706;2023-04-15T07:56:56;22.10;77.30
56046;DHT22;41913;51.030;3.706;2023-04-15T07:59:23;22.10;77.00
56046;DHT22;41913;51.030;3.706;2023-04-15T08:01:49;22.10;76.90
56046;DHT22;41913;51.030;3.706;2023-04-15T08:04:14;22.00;76.70
56046;DHT22;41913;51.030;3.706;2023-04-15T08:06:40;22.00;76.70
56046;DHT22;41913;51.030;3.706;2023-04-15T08:09:06;22.00;76.90
56046;DHT22;41913;51.030;3.706;2023-04-15T08:11:32;22.00;77.00
56046;DHT22;41913;51.030;3.706;2023-04-15T08:13:58;22.00;77.00
56046;DHT22;41913;51.030;3.706;2023-04-15T08:16:25;22.00;76.90
56046;DHT22;41913;51.030;3.706;2023-04-15T08:18:54;21.90;76.90
56046;DHT22;41913;51.030;3.706;2023-04-15T08:21:21;21.80;76.90
56046;DHT22;41913;51.030;3.706;2023-04-15T08:23:48;21.70;76.90
56046;DHT22;41913;51.030;3.706;2023-04-15T08:26:17;21.70;77.00
56046;DHT22;41913;51.030;3.706;2023-04-15T08:28:44;21.60;77.20
56046;DHT22;41913;51.030;3.706;2023-04-15T08:31:11;21.50;77.20
56046;DHT22;41913;51.030;3.706;2023-04-15T08:33:38;21.40;77.20
56046;DHT22;41913;51.030;3.706;2023-04-15T08:36:04;21.30;77.40
56046;DHT22;41913;51.030;3.706;2023-04-15T08:38:30;21.20;77.50
56046;DHT22;41913;51.030;3.706;2023-04-15T08:40:57;21.10;78.20
56046;DHT22;41913;51.030;3.706;2023-04-15T08:43:27;21.10;78.80
56046;DHT22;41913;51.030;3.706;2023-04-15T08:45:55;21.00;79.30
56046;DHT22;41913;51.030;3.706;2023-04-15T08:48:25;21.00;79.80
56046;DHT22;41913;51.030;3.706;2023-04-15T08:50:52;20.90;80.00
56046;DHT22;41913;51.030;3.706;2023-04-15T08:53:18;20.80;80.50
56046;DHT22;41913;51.030;3.706;2023-04-15T08:55:45;20.80;81.00
56046;DHT22;41913;51.030;3.706;2023-04-15T08:58:12;20.80;81.40
56046;DHT22;41913;51.030;3.706;2023-04-15T09:00:38;20.70;81.70
56046;DHT22;41913;51.030;3.706;2023-04-15T09:03:05;20.60;81.90
56046;DHT22;41913;51.030;3.706;2023-04-15T09:05:32;20.60;82.20
56046;DHT22;41913;51.030;3.706;2023-04-15T09:07:59;20.60;82.50
56046;DHT22;41913;51.030;3.706;2023-04-15T09:10:24;20.50;82.60
56046;DHT22;41913;51.030;3.706;2023-04-15T09:12:51;20.40;82.80
56046;DHT22;41913;51.030;3.706;2023-04-15T09:15:17;20.40;83.00
56046;DHT22;41913;51.030;3.706;2023-04-15T09:17:44;20.30;83.10
56046;DHT22;41913;51.030;3.706;2023-04-15T09:20:11;20.30;83.30
56046;DHT22;41913;51.030;3.706;2023-04-15T09:22:39;20.20;83.40
56046;DHT22;41913;51.030;3.706;2023-04-15T09:27:57;20.20;83.60
56046;DHT22;41913;51.030;3.706;2023-04-15T09:30:24;20.20;83.70
56046;DHT22;41913;51.030;3.706;2023-04-15T09:32:55;20.10;83.80
56046;DHT22;41913;51.030;3.706;2023-04-15T09:35:22;20.10;83.90
56046;DHT22;41913;51.030;3.706;2023-04-15T09:37:49;20.10;84.00
56046;DHT22;41913;51.030;3.706;2023-04-15T09:40:37;20.00;84.00
56046;DHT22;41913;51.030;3.706;2023-04-15T09:43:04;20.00;84.10
56046;DHT22;41913;51.030;3.706;2023-04-15T09:45:32;19.90;84.10
56046;DHT22;41913;51.030;3.706;2023-04-15T09:47:59;19.90;84.20
56046;DHT22;41913;51.030;3.706;2023-04-15T09:50:40;19.90;84.30
56046;DHT22;41913;51.030;3.706;2023-04-15T09:53:15;19.90;84.40
56046;DHT22;41913;51.030;3.706;2023-04-15T09:55:54;19.90;84.50
56046;DHT22;41913;51.030;3.706;2023-04-15T09:58:22;19.80;84.40
56046;DHT22;41913;51.030;3.706;2023-04-15T10:00:50;19.80;84.60
56046;DHT22;41913;51.030;3.706;2023-04-15T10:03:19;19.80;84.60
56046;DHT22;41913;51.030;3.706;2023-04-15T10:05:47;19.80;84.70
56046;DHT22;41913;51.030;3.706;2023-04-15T10:08:15;19.80;84.70
56046;DHT22;41913;51.030;3.706;2023-04-15T10:10:41;19.80;84.80
56046;DHT22;41913;51.030;3.706;2023-04-15T10:13:08;19.80;84.90
56046;DHT22;41913;51.030;3.706;2023-04-15T10:15:34;19.70;84.90
56046;DHT22;41913;51.030;3.706;2023-04-15T10:18:00;19.70;85.10
56046;DHT22;41913;51.030;3.706;2023-04-15T10:20:28;19.70;85.10
56046;DHT22;41913;51.030;3.706;2023-04-15T10:22:54;19.70;85.10
56046;DHT22;41913;51.030;3.706;2023-04-15T10:25:20;19.70;85.20
56046;DHT22;41913;51.030;3.706;2023-04-15T10:27:46;19.70;85.30
56046;DHT22;41913;51.030;3.706;2023-04-15T10:30:13;19.60;85.20
56046;DHT22;41913;51.030;3.706;2023-04-15T10:32:39;19.70;85.40
56046;DHT22;41913;51.030;3.706;2023-04-15T10:35:06;19.60;85.40
56046;DHT22;41913;51.030;3.706;2023-04-15T10:37:37;19.60;85.50
56046;DHT22;41913;51.030;3.706;2023-04-15T10:40:25;19.60;85.50
56046;DHT22;41913;51.030;3.706;2023-04-15T10:42:55;19.60;85.50
56046;DHT22;41913;51.030;3.706;2023-04-15T10:45:25;19.60;85.60
56046;DHT22;41913;51.030;3.706;2023-04-15T10:47:55;19.60;85.70
56046;DHT22;41913;51.030;3.706;2023-04-15T10:50:21;19.60;85.60
56046;DHT22;41913;51.030;3.706;2023-04-15T10:52:51;19.60;85.70
56046;DHT22;41913;51.030;3.706;2023-04-15T10:55:22;19.50;85.60
56046;DHT22;41913;51.030;3.706;2023-04-15T10:57:57;19.50;86.30
56046;DHT22;41913;51.030;3.706;2023-04-15T11:00:29;19.50;85.70
56046;DHT22;41913;51.030;3.706;2023-04-15T11:03:06;19.50;85.80
56046;DHT22;41913;51.030;3.706;2023-04-15T11:08:07;19.40;85.60
56046;DHT22;41913;51.030;3.706;2023-04-15T11:13:04;19.40;85.30
56046;DHT22;41913;51.030;3.706;2023-04-15T11:15:33;19.40;85.30
56046;DHT22;41913;51.030;3.706;2023-04-15T11:18:08;19.40;85.20
56046;DHT22;41913;51.030;3.706;2023-04-15T11:20:34;19.40;85.30
56046;DHT22;41913;51.030;3.706;2023-04-15T11:22:59;19.40;85.50
56046;DHT22;41913;51.030;3.706;2023-04-15T11:25:30;19.40;85.80
56046;DHT22;41913;51.030;3.706;2023-04-15T11:27:59;19.40;85.90
56046;DHT22;41913;51.030;3.706;2023-04-15T11:30:26;19.40;86.00
56046;DHT22;41913;51.030;3.706;2023-04-15T11:32:55;19.40;86.10
56046;DHT22;41913;51.030;3.706;2023-04-15T11:35:22;19.40;86.20
56046;DHT22;41913;51.030;3.706;2023-04-15T11:37:48;19.30;86.30
56046;DHT22;41913;51.030;3.706;2023-04-15T11:40:15;19.30;86.40
56046;DHT22;41913;51.030;3.706;2023-04-15T11:42:43;19.30;86.50
56046;DHT22;41913;51.030;3.706;2023-04-15T11:45:10;19.30;86.60
56046;DHT22;41913;51.030;3.706;2023-04-15T11:47:37;19.30;86.60
56046;DHT22;41913;51.030;3.706;2023-04-15T11:52:39;19.30;86.60
56046;DHT22;41913;51.030;3.706;2023-04-15T11:55:06;19.30;86.70
56046;DHT22;41913;51.030;3.706;2023-04-15T11:57:34;19.30;86.80
56046;DHT22;41913;51.030;3.706;2023-04-15T12:00:00;19.30;86.80
56046;DHT22;41913;51.030;3.706;2023-04-15T12:02:35;19.30;86.70
56046;DHT22;41913;51.030;3.706;2023-04-15T12:05:03;19.30;86.70
56046;DHT22;41913;51.030;3.706;2023-04-15T12:07:29;19.30;86.60
56046;DHT22;41913;51.030;3.706;2023-04-15T12:09:55;19.30;86.50
56046;DHT22;41913;51.030;3.706;2023-04-15T12:12:25;19.20;86.40
56046;DHT22;41913;51.030;3.706;2023-04-15T12:14:51;19.30;86.50
56046;DHT22;41913;51.030;3.706;2023-04-15T12:17:17;19.30;86.40
56046;DHT22;41913;51.030;3.706;2023-04-15T12:19:42;19.20;86.30
56046;DHT22;41913;51.030;3.706;2023-04-15T12:22:14;19.20;86.30
56046;DHT22;41913;51.030;3.706;2023-04-15T12:24:41;19.20;86.30
56046;DHT22;41913;51.030;3.706;2023-04-15T12:27:12;19.20;86.70
56046;DHT22;41913;51.030;3.706;2023-04-15T12:29:39;19.20;86.20
56046;DHT22;41913;51.030;3.706;2023-04-15T12:32:16;19.20;86.10
56046;DHT22;41913;51.030;3.706;2023-04-15T12:34:49;19.20;86.00
56046;DHT22;41913;51.030;3.706;2023-04-15T12:37:15;19.20;86.00
56046;DHT22;41913;51.030;3.706;2023-04-15T12:39:43;19.20;86.00
56046;DHT22;41913;51.030;3.706;2023-04-15T12:42:09;19.20;86.00
56046;DHT22;41913;51.030;3.706;2023-04-15T12:44:36;19.20;86.10
56046;DHT22;41913;51.030;3.706;2023-04-15T12:47:02;19.20;86.00
56046;DHT22;41913;51.030;3.706;2023-04-15T12:49:28;19.20;86.00
56046;DHT22;41913;51.030;3.706;2023-04-15T12:51:58;19.10;86.00
56046;DHT22;41913;51.030;3.706;2023-04-15T12:54:27;19.20;86.00
56046;DHT22;41913;51.030;3.706;2023-04-15T12:56:54;19.20;86.00
56046;DHT22;41913;51.030;3.706;2023-04-15T12:59:21;19.10;86.00
56046;DHT22;41913;51.030;3.706;2023-04-15T13:01:48;19.10;86.10
56046;DHT22;41913;51.030;3.706;2023-04-15T13:04:15;19.10;86.20
56046;DHT22;41913;51.030;3.706;2023-04-15T13:06:40;19.10;86.30
56046;DHT22;41913;51.030;3.706;2023-04-15T13:09:06;19.10;86.40
56046;DHT22;41913;51.030;3.706;2023-04-15T13:11:32;19.10;86.50
56046;DHT22;41913;51.030;3.706;2023-04-15T13:14:04;19.10;86.50
56046;DHT22;41913;51.030;3.706;2023-04-15T13:16:32;19.10;86.50
56046;DHT22;41913;51.030;3.706;2023-04-15T13:19:01;19.10;86.40
56046;DHT22;41913;51.030;3.706;2023-04-15T13:21:27;19.10;86.30
56046;DHT22;41913;51.030;3.706;2023-04-15T13:23:53;19.10;86.10
56046;DHT22;41913;51.030;3.706;2023-04-15T13:26:19;19.10;85.90
56046;DHT22;41913;51.030;3.706;2023-04-15T13:28:45;19.10;85.70
56046;DHT22;41913;51.030;3.706;2023-04-15T13:31:11;19.10;85.50
56046;DHT22;41913;51.030;3.706;2023-04-15T13:33:38;19.10;85.30
56046;DHT22;41913;51.030;3.706;2023-04-15T13:36:04;19.10;85.10
56046;DHT22;41913;51.030;3.706;2023-04-15T13:38:30;19.10;84.90
56046;DHT22;41913;51.030;3.706;2023-04-15T13:40:56;19.00;84.70
56046;DHT22;41913;51.030;3.706;2023-04-15T13:43:21;19.00;84.60
56046;DHT22;41913;51.030;3.706;2023-04-15T13:45:48;19.00;84.30
56046;DHT22;41913;51.030;3.706;2023-04-15T13:48:14;19.00;84.30
56046;DHT22;41913;51.030;3.706;2023-04-15T13:50:40;19.00;84.20
56046;DHT22;41913;51.030;3.706;2023-04-15T13:53:10;19.00;84.10
56046;DHT22;41913;51.030;3.706;2023-04-15T13:55:36;19.00;83.90
56046;DHT22;41913;51.030;3.706;2023-04-15T13:58:06;19.00;83.60
56046;DHT22;41913;51.030;3.706;2023-04-15T14:00:32;19.00;83.50
56046;DHT22;41913;51.030;3.706;2023-04-15T14:02:57;19.00;83.30
56046;DHT22;41913;51.030;3.706;2023-04-15T14:05:23;19.00;83.20
56046;DHT22;41913;51.030;3.706;2023-04-15T14:07:49;19.00;83.10
56046;DHT22;41913;51.030;3.706;2023-04-15T14:10:14;19.00;83.10
56046;DHT22;41913;51.030;3.706;2023-04-15T14:12:41;19.00;83.20
56046;DHT22;41913;51.030;3.706;2023-04-15T14:15:08;19.00;83.30
56046;DHT22;41913;51.030;3.706;2023-04-15T14:17:34;19.00;83.40
56046;DHT22;41913;51.030;3.706;2023-04-15T14:19:59;19.00;83.50
56046;DHT22;41913;51.030;3.706;2023-04-15T14:22:25;19.00;83.50
56046;DHT22;41913;51.030;3.706;2023-04-15T14:24:51;19.00;83.60
56046;DHT22;41913;51.030;3.706;2023-04-15T14:27:20;19.00;83.60
56046;DHT22;41913;51.030;3.706;2023-04-15T14:29:46;19.00;83.30
56046;DHT22;41913;51.030;3.706;2023-04-15T14:32:11;19.00;83.20
56046;DHT22;41913;51.030;3.706;2023-04-15T14:34:37;19.00;83.10
56046;DHT22;41913;51.030;3.706;2023-04-15T14:37:03;18.90;83.00
56046;DHT22;41913;51.030;3.706;2023-04-15T14:39:29;19.00;83.00
56046;DHT22;41913;51.030;3.706;2023-04-15T14:41:55;18.90;82.90
56046;DHT22;41913;51.030;3.706;2023-04-15T14:44:21;19.00;82.90
56046;DHT22;41913;51.030;3.706;2023-04-15T14:46:47;18.90;82.80
56046;DHT22;41913;51.030;3.706;2023-04-15T14:49:12;18.90;82.80
56046;DHT22;41913;51.030;3.706;2023-04-15T14:51:38;19.00;82.80
56046;DHT22;41913;51.030;3.706;2023-04-15T14:54:04;19.00;82.70
56046;DHT22;41913;51.030;3.706;2023-04-15T14:56:30;19.00;82.70
56046;DHT22;41913;51.030;3.706;2023-04-15T14:58:55;19.00;82.70
56046;DHT22;41913;51.030;3.706;2023-04-15T15:01:21;18.90;82.60
56046;DHT22;41913;51.030;3.706;2023-04-15T15:03:48;18.90;82.60
56046;DHT22;41913;51.030;3.706;2023-04-15T15:06:14;18.90;82.60
56046;DHT22;41913;51.030;3.706;2023-04-15T15:08:39;18.90;82.60
56046;DHT22;41913;51.030;3.706;2023-04-15T15:11:05;19.00;82.60
56046;DHT22;41913;51.030;3.706;2023-04-15T15:13:31;19.00;82.60
56046;DHT22;41913;51.030;3.706;2023-04-15T15:15:57;19.00;82.60
56046;DHT22;41913;51.030;3.706;2023-04-15T15:18:23;19.00;82.60
56046;DHT22;41913;51.030;3.706;2023-04-15T15:20:50;19.00;82.60
56046;DHT22;41913;51.030;3.706;2023-04-15T15:23:16;18.90;82.60
56046;DHT22;41913;51.030;3.706;2023-04-15T15:25:43;19.00;82.60
56046;DHT22;41913;51.030;3.706;2023-04-15T15:28:10;19.00;82.50
56046;DHT22;41913;51.030;3.706;2023-04-15T15:30:36;19.00;82.40
56046;DHT22;41913;51.030;3.706;2023-04-15T15:33:02;19.00;82.30
56046;DHT22;41913;51.030;3.706;2023-04-15T15:35:27;19.00;82.20
56046;DHT22;41913;51.030;3.706;2023-04-15T15:37:53;19.00;82.10